Beauregard Regional Airport
KDRI : now visible

Airfield :











YOU CAN JOIN US ON...

 
LOGIN :

Register | Disclaimer

   EN    FR    IT 

 









Legend :    VFR   Marginal VFR   IFR   Intensive IFR   Very Intensive IFR
Visi :
Ceiling :
>= 8 km
>= 3000ft
5 to 8 km
1000 to 3000 ft
1500m to 5 km
500 to 1000 ft
800 to 1500m
200 to 500 ft
< 800m
< 200 ft
Symbols :   Thunderstorms  Fog  Heavy snow  Heavy precipitations  Wind > 20 kt






- Airport Elevation : 202 ft


KDRI - Beauregard Regional

CURRENT METAR :
  • 260515Z AUTO 00000KT 5SM BR CLR 20/20 A2999 RMK AO2 T01990199

EXPIRED METARs :
  • 260455Z AUTO 00000KT 10SM CLR 20/20 A2999 RMK AO2 T02010201
  • 260435Z AUTO 00000KT 5SM BR CLR 21/21 A2999 RMK AO2 T02050205
  • 260415Z AUTO 00000KT 10SM CLR 21/21 A2999 RMK AO2 T02060206
  • 260355Z AUTO 00000KT 10SM CLR 21/21 A2999 RMK AO2 T02070206
  • 260335Z AUTO 00000KT 10SM CLR 21/21 A3000 RMK AO2 T02140214
  • 260315Z AUTO 00000KT 10SM CLR 22/22 A3000 RMK AO2 T02230220
  • 260255Z AUTO 00000KT 10SM CLR 22/21 A2999 RMK AO2 T02150214
  • 260235Z AUTO 00000KT 10SM CLR 22/22 A2999 RMK AO2 T02190216

TAF N/A
KZHU FIR / North America



MET'MAP, your aeronautical weather chart ! - Copyright ORBIFLY December 2007 - Disclaimer

ORBIFLY MET'MAP TEAM :

Programming & Development : Alexandra Zaïnal
Concept & original design : Baudouin d'Aumeries
Assistance for programming : Marc-Olivier Méhu
Technical & hardware support : Manuel Goepfert

Contact : metmap@orbifly.com




SOURCES & CREDITS :

   NOAA       Earth
Advisory